Time;durP1;ratioP1;P1;durP2;ratioP2;P2;SDS_P1;SDS_P2;PMS_P1;PMS_P2;Temp;Humidity;BMP_temperature;BMP_pressure;BME280_temperature;BME280_humidity;BME280_pressure;Samples;Min_cycle;Max_cycle;Signal;HPM_P1;HPM_P2
2022/03/02 00:00:54;;;;;;;36.15;12.85;;;;;;;;;;8373959;28;20045;-83
2022/03/02 00:04:56;;;;;;;34.60;14.15;;;;;;;;;;8380229;28;20036;-83
2022/03/02 00:08:59;;;;;;;34.08;14.18;;;;;;;;;;8379025;28;20049;-83
2022/03/02 00:13:03;;;;;;;79.97;26.98;;;;;;;;;;8396216;28;20051;-83
2022/03/02 00:17:06;;;;;;;27.85;14.80;;;;;;;;;;8389294;28;20049;-83
2022/03/02 00:21:09;;;;;;;27.08;13.18;;;;;;;;;;8364773;28;20061;-83
2022/03/02 00:25:11;;;;;;;41.60;14.57;;;;;;;;;;8372547;28;20446;-83
2022/03/02 00:29:15;;;;;;;48.95;16.85;;;;;;;;;;8388795;28;20049;-83
2022/03/02 00:33:18;;;;;;;34.88;15.23;;;;;;;;;;8395029;28;20036;-82
2022/03/02 00:37:21;;;;;;;36.00;15.63;;;;;;;;;;8372438;28;20399;-83
2022/03/02 00:41:23;;;;;;;39.10;13.75;;;;;;;;;;8363204;28;20045;-83
2022/03/02 00:45:27;;;;;;;30.40;13.02;;;;;;;;;;8363427;28;20053;-83
2022/03/02 00:49:31;;;;;;;27.75;11.35;;;;;;;;;;8364746;28;20468;-83
2022/03/02 00:53:34;;;;;;;37.45;11.52;;;;;;;;;;8385803;28;20045;-83
2022/03/02 00:57:37;;;;;;;31.42;11.65;;;;;;;;;;8381128;28;20102;-83
2022/03/02 01:01:41;;;;;;;33.03;11.88;;;;;;;;;;8378793;28;21748;-83
2022/03/02 01:05:43;;;;;;;26.85;10.60;;;;;;;;;;8382807;28;20044;-83
2022/03/02 01:09:46;;;;;;;22.58;10.48;;;;;;;;;;8381074;28;20045;-83
2022/03/02 01:13:52;;;;;;;26.95;10.70;;;;;;;;;;8362525;28;20045;-83
2022/03/02 01:18:02;;;;;;;21.70;9.25;;;;;;;;;;8361672;28;20057;-83
2022/03/02 01:22:08;;;;;;;27.75;10.88;;;;;;;;;;8362523;28;20037;-84
2022/03/02 01:26:16;;;;;;;29.33;11.55;;;;;;;;;;8362475;28;20486;-83
2022/03/02 01:30:21;;;;;;;24.00;10.05;;;;;;;;;;8363277;28;20055;-83
2022/03/02 01:34:30;;;;;;;30.00;11.00;;;;;;;;;;8368341;28;20048;-83
2022/03/02 01:38:36;;;;;;;22.17;9.63;;;;;;;;;;8368274;28;20051;-83
2022/03/02 01:42:48;;;;;;;22.58;10.30;;;;;;;;;;8368095;28;20044;-83
2022/03/02 01:46:51;;;;;;;18.65;9.07;;;;;;;;;;8368018;28;20053;-83
2022/03/02 01:50:55;;;;;;;25.05;10.73;;;;;;;;;;8368251;28;20407;-83
2022/03/02 01:54:58;;;;;;;19.95;9.00;;;;;;;;;;8367529;28;20080;-83
2022/03/02 01:59:01;;;;;;;24.73;9.30;;;;;;;;;;8367575;28;20101;-83
2022/03/02 02:03:03;;;;;;;31.48;11.32;;;;;;;;;;8367428;28;20048;-83
2022/03/02 02:07:08;;;;;;;18.98;9.05;;;;;;;;;;8367406;28;20158;-83
2022/03/02 02:11:12;;;;;;;17.10;9.80;;;;;;;;;;8367594;28;20665;-83
2022/03/02 02:15:15;;;;;;;19.15;8.98;;;;;;;;;;8367045;28;20048;-83
2022/03/02 02:19:18;;;;;;;18.95;9.50;;;;;;;;;;8366739;28;20075;-83
2022/03/02 02:23:22;;;;;;;17.27;8.23;;;;;;;;;;8366890;28;20127;-83
2022/03/02 02:27:25;;;;;;;18.77;9.85;;;;;;;;;;8366861;28;20045;-83
2022/03/02 02:31:28;;;;;;;20.85;9.07;;;;;;;;;;8366636;28;20124;-83
2022/03/02 02:35:30;;;;;;;27.30;10.77;;;;;;;;;;8366418;28;20056;-82
2022/03/02 02:39:35;;;;;;;18.33;10.18;;;;;;;;;;8366415;28;20472;-83
2022/03/02 02:43:42;;;;;;;25.58;9.52;;;;;;;;;;8366292;28;20481;-83
2022/03/02 02:47:46;;;;;;;25.80;10.77;;;;;;;;;;8366144;28;20052;-83
2022/03/02 02:51:48;;;;;;;16.80;9.90;;;;;;;;;;8365669;28;20045;-83
2022/03/02 02:55:53;;;;;;;15.57;8.18;;;;;;;;;;8365838;28;20412;-83
2022/03/02 02:59:55;;;;;;;17.40;9.45;;;;;;;;;;8365654;28;20048;-83
2022/03/02 03:03:58;;;;;;;26.63;10.13;;;;;;;;;;8365588;28;20409;-83
2022/03/02 03:08:01;;;;;;;20.42;9.85;;;;;;;;;;8365411;28;20045;-83
2022/03/02 03:12:06;;;;;;;34.70;9.98;;;;;;;;;;8365248;28;20048;-83
2022/03/02 03:16:09;;;;;;;23.73;11.10;;;;;;;;;;8364393;28;20064;-83
2022/03/02 03:20:14;;;;;;;20.45;9.02;;;;;;;;;;8364813;28;20060;-83
2022/03/02 03:24:16;;;;;;;25.90;12.02;;;;;;;;;;8365013;28;20393;-83
2022/03/02 03:28:21;;;;;;;27.25;11.68;;;;;;;;;;8365278;28;20037;-83
2022/03/02 03:32:23;;;;;;;20.17;8.55;;;;;;;;;;8364656;28;20052;-83
2022/03/02 03:36:26;;;;;;;21.45;8.10;;;;;;;;;;8364559;28;20048;-82
2022/03/02 03:40:28;;;;;;;15.60;7.35;;;;;;;;;;8364435;28;20087;-83
2022/03/02 03:44:32;;;;;;;21.45;8.13;;;;;;;;;;8364381;28;20057;-83
2022/03/02 03:48:35;;;;;;;14.85;8.60;;;;;;;;;;8364238;28;20124;-82
2022/03/02 03:52:39;;;;;;;22.15;10.43;;;;;;;;;;8363518;28;20051;-83
2022/03/02 03:56:41;;;;;;;19.48;9.40;;;;;;;;;;8364073;28;20126;-83
2022/03/02 04:00:45;;;;;;;33.38;11.57;;;;;;;;;;8363835;28;20041;-83
2022/03/02 04:04:48;;;;;;;19.60;9.13;;;;;;;;;;8364266;28;20404;-83
2022/03/02 04:08:50;;;;;;;28.70;11.98;;;;;;;;;;8363670;28;20049;-83
2022/03/02 04:12:53;;;;;;;25.02;12.88;;;;;;;;;;8363663;28;20407;-83
2022/03/02 04:16:57;;;;;;;22.38;11.40;;;;;;;;;;8363645;28;20048;-83
2022/03/02 04:21:00;;;;;;;30.67;10.95;;;;;;;;;;8363335;28;20110;-83
2022/03/02 04:25:03;;;;;;;17.52;9.52;;;;;;;;;;8363297;28;20491;-83
2022/03/02 04:29:06;;;;;;;25.08;11.07;;;;;;;;;;8381786;28;20488;-83
2022/03/02 04:33:13;;;;;;;21.70;10.65;;;;;;;;;;8378912;28;20048;-84
2022/03/02 04:37:16;;;;;;;17.00;8.95;;;;;;;;;;8378801;28;20044;-83
2022/03/02 04:41:18;;;;;;;20.42;9.48;;;;;;;;;;8387108;28;20369;-83
2022/03/02 04:45:31;;;;;;;21.83;8.10;;;;;;;;;;8392586;28;20044;-83
2022/03/02 04:49:42;;;;;;;29.50;14.38;;;;;;;;;;8394358;28;20120;-82
2022/03/02 04:53:45;;;;;;;67.22;27.77;;;;;;;;;;8394146;28;20132;-83
2022/03/02 04:57:50;;;;;;;59.28;21.95;;;;;;;;;;8384876;28;20408;-83
2022/03/02 05:01:53;;;;;;;48.75;16.15;;;;;;;;;;8385985;28;20044;-83
2022/03/02 05:05:57;;;;;;;37.33;14.25;;;;;;;;;;8384448;28;20093;-83
2022/03/02 05:10:00;;;;;;;27.17;15.43;;;;;;;;;;8371693;28;20080;-83
2022/03/02 05:14:02;;;;;;;35.45;14.77;;;;;;;;;;8369050;28;20171;-82
2022/03/02 05:18:05;;;;;;;19.88;9.77;;;;;;;;;;8373211;28;20064;-83
2022/03/02 05:22:09;;;;;;;14.13;6.90;;;;;;;;;;8347517;28;20550;-82
2022/03/02 05:26:11;;;;;;;17.17;9.45;;;;;;;;;;8368632;28;20052;-82
2022/03/02 05:30:15;;;;;;;29.17;11.18;;;;;;;;;;8368363;28;20048;-82
2022/03/02 05:34:17;;;;;;;29.75;11.25;;;;;;;;;;8368176;28;20045;-82
2022/03/02 05:38:21;;;;;;;29.08;10.05;;;;;;;;;;8386861;28;20466;-82
2022/03/02 05:42:24;;;;;;;27.27;10.43;;;;;;;;;;8400779;28;20045;-82
2022/03/02 05:46:27;;;;;;;29.60;12.02;;;;;;;;;;8401189;28;20044;-83
2022/03/02 05:50:30;;;;;;;21.40;10.20;;;;;;;;;;8400963;28;20052;-82
2022/03/02 05:54:34;;;;;;;25.30;10.75;;;;;;;;;;8400601;28;20045;-82
2022/03/02 05:58:37;;;;;;;23.42;9.55;;;;;;;;;;8400237;28;20090;-82
2022/03/02 06:02:42;;;;;;;25.92;10.05;;;;;;;;;;8393458;28;20051;-82
2022/03/02 06:06:45;;;;;;;27.58;11.82;;;;;;;;;;8367426;28;20204;-82
2022/03/02 06:10:50;;;;;;;26.08;11.73;;;;;;;;;;8367147;28;20048;-82
2022/03/02 06:14:54;;;;;;;25.77;11.50;;;;;;;;;;8366925;28;20045;-82
2022/03/02 06:19:03;;;;;;;40.83;11.90;;;;;;;;;;8364651;28;20140;-83
2022/03/02 06:23:07;;;;;;;36.05;13.63;;;;;;;;;;8381377;28;20416;-83
2022/03/02 06:27:13;;;;;;;22.27;11.35;;;;;;;;;;8427985;22;20143;-82
2022/03/02 06:31:18;;;;;;;31.30;12.18;;;;;;;;;;8443792;28;20075;-82
2022/03/02 06:35:22;;;;;;;38.67;14.15;;;;;;;;;;8433382;28;20491;-83
2022/03/02 06:39:26;;;;;;;34.92;15.45;;;;;;;;;;8433971;28;20040;-83
2022/03/02 06:43:36;;;;;;;39.92;18.83;;;;;;;;;;8462870;28;20070;-84
2022/03/02 06:47:44;;;;;;;71.55;27.00;;;;;;;;;;8465115;28;20075;-83
2022/03/02 06:51:48;;;;;;;74.10;32.47;;;;;;;;;;8454378;28;20074;-83
2022/03/02 06:55:51;;;;;;;98.70;51.33;;;;;;;;;;8432130;28;20067;-84
2022/03/02 07:00:02;;;;;;;106.47;46.75;;;;;;;;;;8431834;28;20560;-85
2022/03/02 07:04:05;;;;;;;83.88;36.35;;;;;;;;;;8426419;28;20483;-81
2022/03/02 07:08:09;;;;;;;180.75;70.65;;;;;;;;;;8435560;28;20047;-82
2022/03/02 07:12:12;;;;;;;152.73;63.58;;;;;;;;;;8437211;28;20054;-82
2022/03/02 07:16:21;;;;;;;95.93;44.60;;;;;;;;;;8453166;28;20076;-82
2022/03/02 07:20:26;;;;;;;108.03;49.35;;;;;;;;;;8448544;28;20459;-82
2022/03/02 07:24:37;;;;;;;111.78;55.50;;;;;;;;;;8434332;28;20080;-82
2022/03/02 07:28:41;;;;;;;104.78;55.38;;;;;;;;;;8455331;28;20039;-81
2022/03/02 07:32:47;;;;;;;171.57;66.65;;;;;;;;;;8450079;28;20402;-81
2022/03/02 07:36:51;;;;;;;157.40;65.63;;;;;;;;;;8430910;28;20048;-81
2022/03/02 07:40:55;;;;;;;100.97;49.03;;;;;;;;;;8430750;28;20544;-81
2022/03/02 07:44:58;;;;;;;100.10;48.53;;;;;;;;;;8431084;28;20124;-81
2022/03/02 07:49:04;;;;;;;95.82;46.58;;;;;;;;;;8449122;28;20051;-81
2022/03/02 07:53:08;;;;;;;90.70;44.92;;;;;;;;;;8432681;28;20457;-81
2022/03/02 07:57:15;;;;;;;81.25;41.83;;;;;;;;;;8433442;28;20036;-81
2022/03/02 08:01:19;;;;;;;68.43;37.13;;;;;;;;;;8443302;28;20044;-81
2022/03/02 08:05:24;;;;;;;70.38;38.83;;;;;;;;;;8441095;28;20093;-81
2022/03/02 08:09:27;;;;;;;76.13;39.25;;;;;;;;;;8428711;28;20407;-81
2022/03/02 08:18:22;;;;;;;61.88;34.10;;;;;;;;;;8457140;22;20050;-81
2022/03/02 08:22:30;;;;;;;35.47;18.75;;;;;;;;;;8457236;28;20413;-80
2022/03/02 08:26:33;;;;;;;27.88;15.93;;;;;;;;;;8460307;28;20103;-80
2022/03/02 08:30:38;;;;;;;22.52;13.38;;;;;;;;;;8438555;28;20042;-80
2022/03/02 08:34:44;;;;;;;20.90;11.25;;;;;;;;;;8440861;28;20054;-80
2022/03/02 08:38:49;;;;;;;21.42;11.27;;;;;;;;;;8441100;28;20437;-79
2022/03/02 08:42:52;;;;;;;19.10;11.32;;;;;;;;;;8438713;28;20139;-80
2022/03/02 08:46:55;;;;;;;15.68;8.55;;;;;;;;;;8436209;28;20426;-81
2022/03/02 08:51:01;;;;;;;14.43;9.10;;;;;;;;;;8447625;28;20063;-80
2022/03/02 08:55:10;;;;;;;15.25;9.02;;;;;;;;;;8447407;28;20096;-79
2022/03/02 08:59:30;;;;;;;15.98;9.23;;;;;;;;;;8425809;28;20047;-79
2022/03/02 09:03:34;;;;;;;12.55;7.47;;;;;;;;;;8455580;27;20046;-79
2022/03/02 09:07:37;;;;;;;18.63;9.80;;;;;;;;;;8444372;28;20044;-79
2022/03/02 09:11:44;;;;;;;26.65;13.82;;;;;;;;;;8453963;28;20085;-78
2022/03/02 09:16:10;;;;;;;12.85;7.38;;;;;;;;;;8458436;28;20066;-79
2022/03/02 09:20:13;;;;;;;12.60;7.18;;;;;;;;;;8458537;22;20373;-78
2022/03/02 09:24:30;;;;;;;17.13;9.95;;;;;;;;;;8461801;22;20056;-81
2022/03/02 09:28:37;;;;;;;15.40;7.47;;;;;;;;;;8488857;27;20035;-78
2022/03/02 09:32:42;;;;;;;10.57;6.40;;;;;;;;;;8486159;27;20038;-78
2022/03/02 09:36:47;;;;;;;13.23;7.22;;;;;;;;;;8483718;27;20126;-78
2022/03/02 09:40:53;;;;;;;10.95;7.13;;;;;;;;;;8491151;27;20505;-78
2022/03/02 09:45:03;;;;;;;14.65;7.57;;;;;;;;;;8484819;27;20043;-78
2022/03/02 09:49:07;;;;;;;14.77;7.15;;;;;;;;;;8471955;27;20039;-78
2022/03/02 09:53:14;;;;;;;11.93;7.15;;;;;;;;;;8477123;27;20683;-78
2022/03/02 09:57:19;;;;;;;11.95;6.45;;;;;;;;;;8494800;27;20047;-79
2022/03/02 10:01:26;;;;;;;11.80;6.97;;;;;;;;;;8471840;27;20050;-78
2022/03/02 10:05:31;;;;;;;17.55;7.85;;;;;;;;;;8488605;27;20131;-79
2022/03/02 10:09:36;;;;;;;12.82;6.57;;;;;;;;;;8501541;27;20608;-78
2022/03/02 10:13:39;;;;;;;12.85;6.43;;;;;;;;;;8493223;27;20138;-79
2022/03/02 10:17:51;;;;;;;13.60;6.55;;;;;;;;;;8467213;28;20055;-78
2022/03/02 10:22:16;;;;;;;13.82;5.78;;;;;;;;;;8467400;28;20092;-78
2022/03/02 10:26:27;;;;;;;13.32;6.28;;;;;;;;;;8466754;28;20059;-78
2022/03/02 10:30:34;;;;;;;12.10;6.50;;;;;;;;;;8466818;28;20592;-78
2022/03/02 10:34:46;;;;;;;17.33;6.18;;;;;;;;;;8478187;27;20387;-80
2022/03/02 10:38:57;;;;;;;17.90;8.88;;;;;;;;;;8489232;27;20118;-79
2022/03/02 10:43:03;;;;;;;14.00;7.38;;;;;;;;;;8487783;27;20043;-79
2022/03/02 10:47:11;;;;;;;10.98;5.13;;;;;;;;;;8479962;27;20047;-79
2022/03/02 10:51:19;;;;;;;14.88;6.13;;;;;;;;;;8474871;27;20448;-79
2022/03/02 10:55:24;;;;;;;13.27;5.38;;;;;;;;;;8512942;27;20051;-79
2022/03/02 10:59:27;;;;;;;11.20;5.25;;;;;;;;;;8510293;27;20062;-79
2022/03/02 11:03:36;;;;;;;11.98;5.68;;;;;;;;;;8466023;28;20425;-79
2022/03/02 11:07:41;;;;;;;10.35;5.25;;;;;;;;;;8477126;27;20541;-78
2022/03/02 11:11:45;;;;;;;10.80;5.05;;;;;;;;;;8496149;27;20531;-79
2022/03/02 11:15:52;;;;;;;12.85;6.30;;;;;;;;;;8494983;27;20089;-79
2022/03/02 11:19:57;;;;;;;14.15;5.80;;;;;;;;;;8463910;27;20046;-79
2022/03/02 11:24:04;;;;;;;12.48;5.88;;;;;;;;;;8481119;27;21910;-79
2022/03/02 11:28:07;;;;;;;10.35;5.43;;;;;;;;;;8484881;27;20044;-79
2022/03/02 11:32:14;;;;;;;13.88;5.70;;;;;;;;;;8486618;27;20039;-78
2022/03/02 11:36:19;;;;;;;14.75;6.22;;;;;;;;;;8490702;27;20047;-79
2022/03/02 11:40:39;;;;;;;10.25;5.10;;;;;;;;;;8475666;27;20047;-79
2022/03/02 11:44:43;;;;;;;11.68;5.22;;;;;;;;;;8475571;27;20036;-80
2022/03/02 11:48:46;;;;;;;11.60;5.43;;;;;;;;;;8474399;27;20043;-79
2022/03/02 11:52:49;;;;;;;10.82;6.03;;;;;;;;;;8467648;27;20040;-79
2022/03/02 11:57:02;;;;;;;11.68;5.88;;;;;;;;;;8472836;27;20490;-79
2022/03/02 12:01:07;;;;;;;10.15;5.20;;;;;;;;;;8485561;27;20047;-79
2022/03/02 12:05:11;;;;;;;11.60;5.07;;;;;;;;;;8484451;27;20043;-78
2022/03/02 12:09:28;;;;;;;10.85;5.65;;;;;;;;;;8470941;27;20074;-78
2022/03/02 12:13:32;;;;;;;12.57;5.93;;;;;;;;;;8468516;27;20039;-78
2022/03/02 12:17:36;;;;;;;12.45;6.07;;;;;;;;;;8474727;27;20044;-78
2022/03/02 12:21:39;;;;;;;10.55;5.85;;;;;;;;;;8463358;28;20096;-78
2022/03/02 12:25:47;;;;;;;13.48;5.43;;;;;;;;;;8444964;28;20444;-78
2022/03/02 12:29:59;;;;;;;11.82;5.80;;;;;;;;;;8463156;28;20043;-78
2022/03/02 12:34:11;;;;;;;9.57;4.67;;;;;;;;;;8463516;28;20390;-78
2022/03/02 12:38:15;;;;;;;11.90;5.32;;;;;;;;;;8463536;28;20078;-78
2022/03/02 12:42:18;;;;;;;12.60;5.85;;;;;;;;;;8463133;28;20039;-78
2022/03/02 12:46:24;;;;;;;11.15;5.97;;;;;;;;;;8462690;28;20040;-78
2022/03/02 12:50:26;;;;;;;15.05;6.80;;;;;;;;;;8462845;28;20043;-78
2022/03/02 12:54:32;;;;;;;15.15;6.95;;;;;;;;;;8462886;28;20081;-78
2022/03/02 12:58:35;;;;;;;12.20;6.43;;;;;;;;;;8492376;27;20565;-78
2022/03/02 13:02:40;;;;;;;14.77;7.82;;;;;;;;;;8489292;28;20108;-80
2022/03/02 13:06:52;;;;;;;19.00;8.77;;;;;;;;;;8463448;28;20044;-79
2022/03/02 13:10:56;;;;;;;;;;;;;;;;;;8447095;28;20043;-79
2022/03/02 13:15:02;;;;;;;17.67;7.80;;;;;;;;;;8446179;28;20276;-79
2022/03/02 13:19:17;;;;;;;18.95;8.32;;;;;;;;;;8465575;28;20044;-82
2022/03/02 13:23:22;;;;;;;17.23;7.15;;;;;;;;;;8473236;28;20046;-79
2022/03/02 13:27:26;;;;;;;15.90;7.38;;;;;;;;;;8485774;27;20039;-79
2022/03/02 13:31:29;;;;;;;15.13;6.40;;;;;;;;;;8501128;27;20043;-79
2022/03/02 13:35:35;;;;;;;18.38;7.40;;;;;;;;;;8490597;27;20047;-80
2022/03/02 13:39:46;;;;;;;15.93;6.78;;;;;;;;;;8497489;27;20394;-80
2022/03/02 13:43:49;;;;;;;15.73;7.45;;;;;;;;;;8493865;27;20089;-78
2022/03/02 13:48:13;;;;;;;17.27;8.32;;;;;;;;;;8498822;27;20035;-80
2022/03/02 13:52:19;;;;;;;18.25;8.32;;;;;;;;;;8500155;27;20390;-79
2022/03/02 13:56:32;;;;;;;20.45;7.68;;;;;;;;;;8485012;27;20509;-82
2022/03/02 14:00:35;;;;;;;16.73;6.28;;;;;;;;;;8479366;27;20768;-80
2022/03/02 14:04:43;;;;;;;16.40;7.93;;;;;;;;;;8470188;27;20071;-81
2022/03/02 14:08:50;;;;;;;22.80;9.07;;;;;;;;;;8467471;28;20035;-80
2022/03/02 14:12:55;;;;;;;17.20;8.13;;;;;;;;;;8494594;27;20039;-79
2022/03/02 14:17:01;;;;;;;20.65;9.23;;;;;;;;;;8496567;27;20077;-79
2022/03/02 14:21:12;;;;;;;17.00;7.82;;;;;;;;;;8491289;27;20077;-79
2022/03/02 14:25:21;;;;;;;15.20;6.95;;;;;;;;;;8497090;27;20055;-80
2022/03/02 14:34:03;;;;;;;23.15;9.00;;;;;;;;;;8352116;28;20057;-83
2022/03/02 14:38:06;;;;;;;33.20;11.00;;;;;;;;;;8353173;28;20073;-79
2022/03/02 14:42:18;;;;;;;19.00;8.90;;;;;;;;;;8365269;28;20045;-82
2022/03/02 14:46:22;;;;;;;16.60;8.27;;;;;;;;;;8365960;28;20466;-80
2022/03/02 14:50:31;;;;;;;22.23;8.80;;;;;;;;;;8366670;28;20041;-79
2022/03/02 14:54:34;;;;;;;18.83;9.85;;;;;;;;;;8368104;28;20123;-80
2022/03/02 14:58:42;;;;;;;22.67;9.82;;;;;;;;;;8370477;28;20564;-80
2022/03/02 15:02:46;;;;;;;18.83;8.82;;;;;;;;;;8370196;28;20041;-81
2022/03/02 15:06:52;;;;;;;23.85;10.73;;;;;;;;;;8369501;28;20373;-80
2022/03/02 15:10:57;;;;;;;20.33;9.80;;;;;;;;;;8369449;28;20063;-80
2022/03/02 15:15:12;;;;;;;32.30;14.25;;;;;;;;;;8368251;28;20041;-79
2022/03/02 15:19:16;;;;;;;31.02;11.95;;;;;;;;;;8369172;28;20434;-80
2022/03/02 15:23:19;;;;;;;23.42;9.50;;;;;;;;;;8369657;28;20041;-80
2022/03/02 15:27:25;;;;;;;19.70;8.85;;;;;;;;;;8368174;28;20503;-80
2022/03/02 15:31:29;;;;;;;17.75;9.00;;;;;;;;;;8367061;28;20065;-79
2022/03/02 15:35:33;;;;;;;17.20;8.35;;;;;;;;;;8366967;28;20398;-80
2022/03/02 15:39:40;;;;;;;22.27;9.00;;;;;;;;;;8368539;28;20045;-80
2022/03/02 15:43:43;;;;;;;21.60;9.43;;;;;;;;;;8368078;28;20098;-80
2022/03/02 15:47:51;;;;;;;16.90;7.93;;;;;;;;;;8367264;28;20045;-80
2022/03/02 15:52:08;;;;;;;22.15;9.63;;;;;;;;;;8370012;28;20045;-79
2022/03/02 15:56:17;;;;;;;17.25;8.50;;;;;;;;;;8373910;28;20053;-79
2022/03/02 16:00:24;;;;;;;15.70;8.10;;;;;;;;;;8377955;28;20045;-79
2022/03/02 16:04:29;;;;;;;17.55;8.63;;;;;;;;;;8372680;28;20084;-79
2022/03/02 16:08:40;;;;;;;20.25;9.15;;;;;;;;;;8369057;28;20048;-79
2022/03/02 16:12:45;;;;;;;;;;;;;;;;;;8335227;28;20061;-78
2022/03/02 16:16:49;;;;;;;23.20;10.57;;;;;;;;;;8344804;28;20435;-80
2022/03/02 16:20:54;;;;;;;30.55;12.63;;;;;;;;;;8340832;28;20041;-81
2022/03/02 16:24:57;;;;;;;31.40;12.32;;;;;;;;;;8340762;28;20363;-80
2022/03/02 16:29:03;;;;;;;25.63;11.38;;;;;;;;;;8358454;28;20041;-82
2022/03/02 16:33:08;;;;;;;23.65;11.18;;;;;;;;;;8360832;28;20064;-79
2022/03/02 16:37:16;;;;;;;36.42;14.23;;;;;;;;;;8371699;28;20063;-80
2022/03/02 16:41:20;;;;;;;30.42;12.07;;;;;;;;;;8358194;28;20053;-82
2022/03/02 16:45:23;;;;;;;26.10;11.80;;;;;;;;;;8339013;28;20045;-81
2022/03/02 16:49:26;;;;;;;28.85;13.20;;;;;;;;;;8358419;28;20051;-81
2022/03/02 16:53:30;;;;;;;34.40;14.75;;;;;;;;;;8360539;28;20471;-81
2022/03/02 16:57:34;;;;;;;34.35;15.05;;;;;;;;;;8359819;28;20037;-81
2022/03/02 17:01:37;;;;;;;28.75;12.50;;;;;;;;;;8371306;28;20053;-83
2022/03/02 17:05:40;;;;;;;23.15;12.40;;;;;;;;;;8360699;28;20800;-81
2022/03/02 17:09:46;;;;;;;36.65;16.92;;;;;;;;;;8356760;28;20455;-83
2022/03/02 17:13:50;;;;;;;34.72;16.40;;;;;;;;;;8360541;28;20131;-82
2022/03/02 17:17:55;;;;;;;39.50;15.90;;;;;;;;;;8364155;28;20472;-81
2022/03/02 17:21:58;;;;;;;39.15;15.57;;;;;;;;;;8357969;28;20040;-82
2022/03/02 17:26:03;;;;;;;35.30;14.88;;;;;;;;;;8364492;28;20052;-81
2022/03/02 17:30:17;;;;;;;35.03;14.40;;;;;;;;;;8368015;28;20053;-80
2022/03/02 17:34:21;;;;;;;43.60;16.25;;;;;;;;;;8347875;28;20049;-81
2022/03/02 17:38:24;;;;;;;42.60;17.40;;;;;;;;;;8360277;28;20095;-82
2022/03/02 17:42:30;;;;;;;59.45;22.23;;;;;;;;;;8351855;28;20045;-82
2022/03/02 17:46:33;;;;;;;38.20;16.10;;;;;;;;;;8354920;28;20128;-80
2022/03/02 17:50:37;;;;;;;40.05;16.42;;;;;;;;;;8345642;28;20040;-81
2022/03/02 17:54:42;;;;;;;40.40;17.00;;;;;;;;;;8342143;28;20107;-81
2022/03/02 17:58:47;;;;;;;44.33;18.38;;;;;;;;;;8364406;28;20052;-81
2022/03/02 18:02:50;;;;;;;50.00;21.02;;;;;;;;;;8357854;28;20050;-81
2022/03/02 18:06:53;;;;;;;59.88;25.02;;;;;;;;;;8347164;28;20045;-82
2022/03/02 18:10:56;;;;;;;54.40;26.02;;;;;;;;;;8342471;28;20045;-83
2022/03/02 18:15:01;;;;;;;51.58;23.05;;;;;;;;;;8343442;28;20245;-82
2022/03/02 18:19:06;;;;;;;66.28;25.58;;;;;;;;;;8354271;28;20459;-83
2022/03/02 18:23:11;;;;;;;62.80;23.77;;;;;;;;;;8359806;28;20094;-82
2022/03/02 18:27:14;;;;;;;66.40;23.25;;;;;;;;;;8337400;28;20049;-83
2022/03/02 18:31:18;;;;;;;78.70;27.83;;;;;;;;;;8347343;28;20516;-81
2022/03/02 18:35:23;;;;;;;88.68;31.75;;;;;;;;;;8356393;28;20136;-80
2022/03/02 18:39:31;;;;;;;83.70;29.98;;;;;;;;;;8361011;28;20140;-80
2022/03/02 18:43:35;;;;;;;79.93;28.92;;;;;;;;;;8362920;28;20447;-80
2022/03/02 18:47:40;;;;;;;66.70;25.88;;;;;;;;;;8353322;28;20056;-81
2022/03/02 18:51:43;;;;;;;81.38;29.48;;;;;;;;;;8377806;28;20063;-80
2022/03/02 18:55:49;;;;;;;72.18;27.85;;;;;;;;;;8376551;28;20056;-81
2022/03/02 18:59:54;;;;;;;82.45;30.52;;;;;;;;;;8382426;28;20477;-80
2022/03/02 19:04:00;;;;;;;101.53;33.63;;;;;;;;;;8387809;28;20494;-80
2022/03/02 19:08:07;;;;;;;90.80;31.90;;;;;;;;;;8379676;28;20048;-79
2022/03/02 19:12:11;;;;;;;86.50;32.70;;;;;;;;;;8389288;28;20044;-81
2022/03/02 19:16:16;;;;;;;98.25;35.83;;;;;;;;;;8380368;28;20052;-79
2022/03/02 19:20:24;;;;;;;133.10;42.42;;;;;;;;;;8385872;28;20057;-80
2022/03/02 19:24:32;;;;;;;121.45;40.42;;;;;;;;;;8379043;28;20045;-81
2022/03/02 19:28:37;;;;;;;139.30;44.55;;;;;;;;;;8389013;28;20049;-82
2022/03/02 19:32:43;;;;;;;124.70;44.40;;;;;;;;;;8383521;28;20102;-80
2022/03/02 19:36:49;;;;;;;139.05;49.30;;;;;;;;;;8381964;28;20041;-82
2022/03/02 19:40:51;;;;;;;153.15;53.90;;;;;;;;;;8364127;28;20045;-82
2022/03/02 19:44:54;;;;;;;127.20;46.00;;;;;;;;;;8366038;28;20504;-82
2022/03/02 19:48:59;;;;;;;155.77;52.90;;;;;;;;;;8366194;28;20507;-80
2022/03/02 19:53:05;;;;;;;127.70;47.92;;;;;;;;;;8365443;28;20045;-79
2022/03/02 19:57:08;;;;;;;166.38;54.97;;;;;;;;;;8348656;28;20456;-79
2022/03/02 20:01:12;;;;;;;122.53;43.50;;;;;;;;;;8331791;28;20045;-80
2022/03/02 20:05:16;;;;;;;160.98;54.88;;;;;;;;;;8331471;28;20132;-79
2022/03/02 20:09:21;;;;;;;117.55;44.20;;;;;;;;;;8331962;28;20417;-79
2022/03/02 20:13:23;;;;;;;174.93;58.28;;;;;;;;;;8331870;28;20050;-80
2022/03/02 20:17:28;;;;;;;161.20;52.65;;;;;;;;;;8334201;28;20487;-80
2022/03/02 20:21:31;;;;;;;172.35;57.88;;;;;;;;;;8332948;28;20058;-80
2022/03/02 20:25:37;;;;;;;155.60;50.70;;;;;;;;;;8357724;28;20045;-80
2022/03/02 20:29:40;;;;;;;138.45;48.55;;;;;;;;;;8364112;28;20045;-80
2022/03/02 20:33:43;;;;;;;134.57;47.33;;;;;;;;;;8364007;28;20132;-80
2022/03/02 20:37:46;;;;;;;144.23;48.42;;;;;;;;;;8363700;28;20053;-79
2022/03/02 20:41:52;;;;;;;151.52;50.67;;;;;;;;;;8363453;28;20052;-80
2022/03/02 20:45:55;;;;;;;148.55;51.28;;;;;;;;;;8363424;28;20048;-80
2022/03/02 20:49:59;;;;;;;146.07;47.65;;;;;;;;;;8363226;28;20060;-79
2022/03/02 20:54:02;;;;;;;139.90;46.33;;;;;;;;;;8363127;28;20053;-80
2022/03/02 20:58:08;;;;;;;139.77;46.30;;;;;;;;;;8363076;28;20412;-79
2022/03/02 21:02:11;;;;;;;128.27;43.45;;;;;;;;;;8363108;28;20107;-79
2022/03/02 21:06:15;;;;;;;136.68;45.78;;;;;;;;;;8363050;28;20587;-79
2022/03/02 21:10:18;;;;;;;159.25;49.17;;;;;;;;;;8363032;28;20064;-80
2022/03/02 21:14:22;;;;;;;155.98;49.25;;;;;;;;;;8363332;28;20048;-79
2022/03/02 21:18:25;;;;;;;156.52;49.03;;;;;;;;;;8335934;28;20041;-80
2022/03/02 21:22:28;;;;;;;119.38;44.40;;;;;;;;;;8329722;28;20170;-80
2022/03/02 21:26:30;;;;;;;130.15;41.85;;;;;;;;;;8330256;28;20059;-80
2022/03/02 21:30:35;;;;;;;179.43;55.50;;;;;;;;;;8329390;28;20140;-82
2022/03/02 21:34:39;;;;;;;185.98;57.55;;;;;;;;;;8330018;28;20405;-81
2022/03/02 21:38:42;;;;;;;216.68;64.15;;;;;;;;;;8329477;28;20144;-82
2022/03/02 21:42:47;;;;;;;149.45;46.53;;;;;;;;;;8329452;28;20049;-81
2022/03/02 21:46:52;;;;;;;159.38;47.63;;;;;;;;;;8332661;28;20052;-83
2022/03/02 21:50:54;;;;;;;149.73;50.53;;;;;;;;;;8335627;28;20045;-81
2022/03/02 21:54:57;;;;;;;160.43;50.58;;;;;;;;;;8335072;28;20054;-82
2022/03/02 21:58:59;;;;;;;177.93;54.00;;;;;;;;;;8367061;28;20099;-81
2022/03/02 22:03:04;;;;;;;162.30;47.38;;;;;;;;;;8367841;28;20049;-81
2022/03/02 22:07:07;;;;;;;156.68;52.03;;;;;;;;;;8368208;28;20084;-85
2022/03/02 22:11:09;;;;;;;175.25;54.30;;;;;;;;;;8367668;28;20056;-81
2022/03/02 22:15:12;;;;;;;178.75;51.83;;;;;;;;;;8367592;28;20542;-83
2022/03/02 22:19:16;;;;;;;149.18;46.80;;;;;;;;;;8352277;28;20057;-81
2022/03/02 22:23:18;;;;;;;161.57;49.90;;;;;;;;;;8334764;28;20045;-81
2022/03/02 22:27:21;;;;;;;150.32;46.00;;;;;;;;;;8334583;28;20080;-82
2022/03/02 22:31:27;;;;;;;122.00;41.70;;;;;;;;;;8333765;28;20058;-82
2022/03/02 22:35:32;;;;;;;124.88;44.25;;;;;;;;;;8333895;28;20042;-82
2022/03/02 22:39:34;;;;;;;132.15;43.35;;;;;;;;;;8334095;28;20609;-82
2022/03/02 22:43:37;;;;;;;121.05;41.85;;;;;;;;;;8359404;28;20056;-82
2022/03/02 22:47:39;;;;;;;125.25;42.15;;;;;;;;;;8366962;28;20050;-81
2022/03/02 22:51:44;;;;;;;132.77;42.13;;;;;;;;;;8377038;28;20044;-82
2022/03/02 22:55:46;;;;;;;125.07;39.58;;;;;;;;;;8399873;28;20096;-81
2022/03/02 22:59:49;;;;;;;109.28;37.88;;;;;;;;;;8399301;28;20044;-82
2022/03/02 23:03:51;;;;;;;119.43;38.63;;;;;;;;;;8399556;28;20053;-82
2022/03/02 23:16:37;;;;;;;119.07;40.92;;;;;;;;;;8399110;28;20045;-81
2022/03/02 23:20:40;;;;;;;118.45;41.42;;;;;;;;;;8398436;28;20048;-82
2022/03/02 23:24:44;;;;;;;109.05;40.70;;;;;;;;;;8398741;28;20048;-81
2022/03/02 23:28:47;;;;;;;121.70;40.05;;;;;;;;;;8398156;28;20044;-81
2022/03/02 23:32:49;;;;;;;132.65;42.03;;;;;;;;;;8397886;28;20048;-81
2022/03/02 23:36:52;;;;;;;129.10;43.55;;;;;;;;;;8398454;28;20071;-81
2022/03/02 23:40:56;;;;;;;122.40;43.67;;;;;;;;;;8397665;28;20063;-81
2022/03/02 23:44:59;;;;;;;133.57;43.67;;;;;;;;;;8398106;28;20056;-81
2022/03/02 23:49:01;;;;;;;149.80;48.08;;;;;;;;;;8397558;28;20054;-82
2022/03/02 23:53:04;;;;;;;149.98;45.38;;;;;;;;;;8397513;28;20048;-81
2022/03/02 23:57:08;;;;;;;137.20;43.08;;;;;;;;;;8397764;28;20602;-82
